sensor_id;sensor_type;location;lat;lon;timestamp;temperature;humidity
18934;DHT22;9599;53.706;10.384;2023-12-20T00:01:24;6.10;99.90
18934;DHT22;9599;53.706;10.384;2023-12-20T00:03:52;6.10;99.90
18934;DHT22;9599;53.706;10.384;2023-12-20T00:06:20;6.10;99.90
18934;DHT22;9599;53.706;10.384;2023-12-20T00:08:51;6.10;99.90
18934;DHT22;9599;53.706;10.384;2023-12-20T00:11:20;6.00;99.90
18934;DHT22;9599;53.706;10.384;2023-12-20T00:13:48;6.00;99.90
18934;DHT22;9599;53.706;10.384;2023-12-20T00:16:17;6.00;99.90
18934;DHT22;9599;53.706;10.384;2023-12-20T00:18:46;6.00;99.90
18934;DHT22;9599;53.706;10.384;2023-12-20T00:21:14;5.90;99.90
18934;DHT22;9599;53.706;10.384;2023-12-20T00:23:42;5.90;99.90
18934;DHT22;9599;53.706;10.384;2023-12-20T00:26:11;5.90;99.90
18934;DHT22;9599;53.706;10.384;2023-12-20T00:28:39;5.80;99.90
18934;DHT22;9599;53.706;10.384;2023-12-20T00:31:07;5.80;99.90
18934;DHT22;9599;53.706;10.384;2023-12-20T00:33:35;5.80;99.90
18934;DHT22;9599;53.706;10.384;2023-12-20T00:36:05;5.80;99.90
18934;DHT22;9599;53.706;10.384;2023-12-20T00:38:33;5.70;99.90
18934;DHT22;9599;53.706;10.384;2023-12-20T00:41:01;5.70;99.90
18934;DHT22;9599;53.706;10.384;2023-12-20T00:43:31;5.70;99.90
18934;DHT22;9599;53.706;10.384;2023-12-20T00:46:00;5.70;99.90
18934;DHT22;9599;53.706;10.384;2023-12-20T00:48:28;5.70;99.90
18934;DHT22;9599;53.706;10.384;2023-12-20T00:50:57;5.70;99.90
18934;DHT22;9599;53.706;10.384;2023-12-20T00:53:25;5.70;99.90
18934;DHT22;9599;53.706;10.384;2023-12-20T00:55:53;5.70;99.90
18934;DHT22;9599;53.706;10.384;2023-12-20T00:58:21;5.70;99.90
18934;DHT22;9599;53.706;10.384;2023-12-20T01:00:51;5.70;99.90
18934;DHT22;9599;53.706;10.384;2023-12-20T01:03:19;5.70;99.90
18934;DHT22;9599;53.706;10.384;2023-12-20T01:05:47;5.60;99.90
18934;DHT22;9599;53.706;10.384;2023-12-20T01:08:15;5.60;99.90
18934;DHT22;9599;53.706;10.384;2023-12-20T01:10:43;5.70;99.90
18934;DHT22;9599;53.706;10.384;2023-12-20T01:13:13;5.70;99.90
18934;DHT22;9599;53.706;10.384;2023-12-20T01:15:41;5.70;99.90
18934;DHT22;9599;53.706;10.384;2023-12-20T01:18:11;5.70;99.90
18934;DHT22;9599;53.706;10.384;2023-12-20T01:20:40;5.70;99.90
18934;DHT22;9599;53.706;10.384;2023-12-20T01:23:08;5.70;99.90
18934;DHT22;9599;53.706;10.384;2023-12-20T01:25:35;5.80;99.90
18934;DHT22;9599;53.706;10.384;2023-12-20T01:28:04;5.80;99.90
18934;DHT22;9599;53.706;10.384;2023-12-20T01:30:32;5.80;99.90
18934;DHT22;9599;53.706;10.384;2023-12-20T01:33:00;5.90;99.90
18934;DHT22;9599;53.706;10.384;2023-12-20T01:35:30;5.90;99.90
18934;DHT22;9599;53.706;10.384;2023-12-20T01:37:58;5.80;99.90
18934;DHT22;9599;53.706;10.384;2023-12-20T01:40:26;5.80;99.90
18934;DHT22;9599;53.706;10.384;2023-12-20T01:43:00;5.80;99.90
18934;DHT22;9599;53.706;10.384;2023-12-20T01:45:28;5.80;99.90
18934;DHT22;9599;53.706;10.384;2023-12-20T01:47:57;5.80;99.90
18934;DHT22;9599;53.706;10.384;2023-12-20T01:50:27;5.80;99.90
18934;DHT22;9599;53.706;10.384;2023-12-20T01:52:58;5.70;99.90
18934;DHT22;9599;53.706;10.384;2023-12-20T01:55:30;5.70;99.90
18934;DHT22;9599;53.706;10.384;2023-12-20T01:57:59;5.70;99.90
18934;DHT22;9599;53.706;10.384;2023-12-20T02:00:28;5.80;99.90
18934;DHT22;9599;53.706;10.384;2023-12-20T02:02:58;5.80;99.90
18934;DHT22;9599;53.706;10.384;2023-12-20T02:05:29;5.80;99.90
18934;DHT22;9599;53.706;10.384;2023-12-20T02:07:58;5.80;99.90
18934;DHT22;9599;53.706;10.384;2023-12-20T02:10:27;5.80;99.90
18934;DHT22;9599;53.706;10.384;2023-12-20T02:12:56;5.80;99.90
18934;DHT22;9599;53.706;10.384;2023-12-20T02:15:24;5.80;99.90
18934;DHT22;9599;53.706;10.384;2023-12-20T02:17:53;5.90;99.90
18934;DHT22;9599;53.706;10.384;2023-12-20T02:20:21;5.90;99.90
18934;DHT22;9599;53.706;10.384;2023-12-20T02:22:50;5.80;99.90
18934;DHT22;9599;53.706;10.384;2023-12-20T02:25:19;5.90;99.90
18934;DHT22;9599;53.706;10.384;2023-12-20T02:27:47;5.90;99.90
18934;DHT22;9599;53.706;10.384;2023-12-20T02:30:16;5.90;99.90
18934;DHT22;9599;53.706;10.384;2023-12-20T02:32:44;5.90;99.90
18934;DHT22;9599;53.706;10.384;2023-12-20T02:35:12;5.90;99.90
18934;DHT22;9599;53.706;10.384;2023-12-20T02:37:40;5.90;99.90
18934;DHT22;9599;53.706;10.384;2023-12-20T02:40:10;5.90;99.90
18934;DHT22;9599;53.706;10.384;2023-12-20T02:42:38;6.00;99.90
18934;DHT22;9599;53.706;10.384;2023-12-20T02:45:07;5.90;99.90
18934;DHT22;9599;53.706;10.384;2023-12-20T02:47:35;5.90;99.90
18934;DHT22;9599;53.706;10.384;2023-12-20T02:50:04;5.90;99.90
18934;DHT22;9599;53.706;10.384;2023-12-20T02:52:32;6.00;99.90
18934;DHT22;9599;53.706;10.384;2023-12-20T02:55:00;6.00;99.90
18934;DHT22;9599;53.706;10.384;2023-12-20T02:57:30;6.00;99.90
18934;DHT22;9599;53.706;10.384;2023-12-20T02:59:58;6.00;99.90
18934;DHT22;9599;53.706;10.384;2023-12-20T03:02:26;6.00;99.90
18934;DHT22;9599;53.706;10.384;2023-12-20T03:04:54;6.00;99.90
18934;DHT22;9599;53.706;10.384;2023-12-20T03:07:22;6.00;99.90
18934;DHT22;9599;53.706;10.384;2023-12-20T03:09:50;6.00;99.90
18934;DHT22;9599;53.706;10.384;2023-12-20T03:12:40;6.00;99.90
18934;DHT22;9599;53.706;10.384;2023-12-20T03:15:09;6.00;99.90
18934;DHT22;9599;53.706;10.384;2023-12-20T03:17:37;6.00;99.90
18934;DHT22;9599;53.706;10.384;2023-12-20T03:20:06;6.00;99.90
18934;DHT22;9599;53.706;10.384;2023-12-20T03:22:34;6.00;99.90
18934;DHT22;9599;53.706;10.384;2023-12-20T03:25:03;6.00;99.90
18934;DHT22;9599;53.706;10.384;2023-12-20T03:27:31;6.00;99.90
18934;DHT22;9599;53.706;10.384;2023-12-20T03:30:00;6.00;99.90
18934;DHT22;9599;53.706;10.384;2023-12-20T03:32:29;6.00;99.90
18934;DHT22;9599;53.706;10.384;2023-12-20T03:34:57;6.00;99.90
18934;DHT22;9599;53.706;10.384;2023-12-20T03:37:25;6.00;99.90
18934;DHT22;9599;53.706;10.384;2023-12-20T03:39:54;5.90;99.90
18934;DHT22;9599;53.706;10.384;2023-12-20T03:42:23;6.00;99.90
18934;DHT22;9599;53.706;10.384;2023-12-20T03:44:51;6.00;99.90
18934;DHT22;9599;53.706;10.384;2023-12-20T03:47:20;6.00;99.90
18934;DHT22;9599;53.706;10.384;2023-12-20T03:49:49;6.00;99.90
18934;DHT22;9599;53.706;10.384;2023-12-20T03:52:17;6.00;99.90
18934;DHT22;9599;53.706;10.384;2023-12-20T03:54:46;6.00;99.90
18934;DHT22;9599;53.706;10.384;2023-12-20T03:57:14;6.00;99.90
18934;DHT22;9599;53.706;10.384;2023-12-20T03:59:42;6.00;99.90
18934;DHT22;9599;53.706;10.384;2023-12-20T04:02:10;6.00;99.90
18934;DHT22;9599;53.706;10.384;2023-12-20T04:04:39;6.00;99.90
18934;DHT22;9599;53.706;10.384;2023-12-20T04:07:07;6.00;99.90
18934;DHT22;9599;53.706;10.384;2023-12-20T04:09:35;6.00;99.90
18934;DHT22;9599;53.706;10.384;2023-12-20T04:12:04;6.00;99.90
18934;DHT22;9599;53.706;10.384;2023-12-20T04:14:32;6.00;99.90
18934;DHT22;9599;53.706;10.384;2023-12-20T04:17:00;6.00;99.90
18934;DHT22;9599;53.706;10.384;2023-12-20T04:19:28;6.00;99.90
18934;DHT22;9599;53.706;10.384;2023-12-20T04:21:58;5.90;99.90
18934;DHT22;9599;53.706;10.384;2023-12-20T04:24:26;5.90;99.90
18934;DHT22;9599;53.706;10.384;2023-12-20T04:26:54;5.90;99.90
18934;DHT22;9599;53.706;10.384;2023-12-20T04:29:22;5.90;99.90
18934;DHT22;9599;53.706;10.384;2023-12-20T04:31:50;6.00;99.90
18934;DHT22;9599;53.706;10.384;2023-12-20T04:34:19;5.90;99.90
18934;DHT22;9599;53.706;10.384;2023-12-20T04:36:47;5.90;99.90
18934;DHT22;9599;53.706;10.384;2023-12-20T04:39:16;6.00;99.90
18934;DHT22;9599;53.706;10.384;2023-12-20T04:41:44;6.00;99.90
18934;DHT22;9599;53.706;10.384;2023-12-20T04:44:14;6.00;99.90
18934;DHT22;9599;53.706;10.384;2023-12-20T04:46:42;6.00;99.90
18934;DHT22;9599;53.706;10.384;2023-12-20T04:49:10;6.00;99.90
18934;DHT22;9599;53.706;10.384;2023-12-20T04:51:38;6.00;99.90
18934;DHT22;9599;53.706;10.384;2023-12-20T04:54:06;5.90;99.90
18934;DHT22;9599;53.706;10.384;2023-12-20T04:56:35;6.00;99.90
18934;DHT22;9599;53.706;10.384;2023-12-20T04:59:03;6.00;99.90
18934;DHT22;9599;53.706;10.384;2023-12-20T05:01:32;6.00;99.90
18934;DHT22;9599;53.706;10.384;2023-12-20T05:04:00;6.00;99.90
18934;DHT22;9599;53.706;10.384;2023-12-20T05:06:28;6.00;99.90
18934;DHT22;9599;53.706;10.384;2023-12-20T05:08:56;6.00;99.90
18934;DHT22;9599;53.706;10.384;2023-12-20T05:11:24;6.00;99.90
18934;DHT22;9599;53.706;10.384;2023-12-20T05:13:54;6.10;99.90
18934;DHT22;9599;53.706;10.384;2023-12-20T05:16:22;6.10;99.90
18934;DHT22;9599;53.706;10.384;2023-12-20T05:18:50;6.10;99.90
18934;DHT22;9599;53.706;10.384;2023-12-20T05:21:19;6.10;99.90
18934;DHT22;9599;53.706;10.384;2023-12-20T05:23:47;6.10;99.90
18934;DHT22;9599;53.706;10.384;2023-12-20T05:26:15;6.10;99.90
18934;DHT22;9599;53.706;10.384;2023-12-20T05:28:43;6.10;99.90
18934;DHT22;9599;53.706;10.384;2023-12-20T05:31:13;6.10;99.90
18934;DHT22;9599;53.706;10.384;2023-12-20T05:33:41;6.10;99.90
18934;DHT22;9599;53.706;10.384;2023-12-20T05:36:09;6.10;99.90
18934;DHT22;9599;53.706;10.384;2023-12-20T05:38:40;6.10;99.90
18934;DHT22;9599;53.706;10.384;2023-12-20T05:41:08;6.10;99.90
18934;DHT22;9599;53.706;10.384;2023-12-20T05:43:36;6.20;99.90
18934;DHT22;9599;53.706;10.384;2023-12-20T05:46:04;6.20;99.90
18934;DHT22;9599;53.706;10.384;2023-12-20T05:48:33;6.20;99.90
18934;DHT22;9599;53.706;10.384;2023-12-20T05:51:02;6.30;99.90
18934;DHT22;9599;53.706;10.384;2023-12-20T05:53:30;6.30;99.90
18934;DHT22;9599;53.706;10.384;2023-12-20T05:55:58;6.30;99.90
18934;DHT22;9599;53.706;10.384;2023-12-20T05:58:26;6.30;99.90
18934;DHT22;9599;53.706;10.384;2023-12-20T06:00:54;6.30;99.90
18934;DHT22;9599;53.706;10.384;2023-12-20T06:03:22;6.20;99.90
18934;DHT22;9599;53.706;10.384;2023-12-20T06:05:52;6.20;99.90
18934;DHT22;9599;53.706;10.384;2023-12-20T06:08:36;6.20;99.90
18934;DHT22;9599;53.706;10.384;2023-12-20T06:11:04;6.20;99.90
18934;DHT22;9599;53.706;10.384;2023-12-20T06:13:33;6.20;99.90
18934;DHT22;9599;53.706;10.384;2023-12-20T06:16:01;6.20;99.90
18934;DHT22;9599;53.706;10.384;2023-12-20T06:18:29;6.20;99.90
18934;DHT22;9599;53.706;10.384;2023-12-20T06:20:58;6.20;99.90
18934;DHT22;9599;53.706;10.384;2023-12-20T06:23:26;6.10;99.90
18934;DHT22;9599;53.706;10.384;2023-12-20T06:25:54;6.10;99.90
18934;DHT22;9599;53.706;10.384;2023-12-20T06:28:22;6.10;99.90
18934;DHT22;9599;53.706;10.384;2023-12-20T06:30:51;6.10;99.90
18934;DHT22;9599;53.706;10.384;2023-12-20T06:33:22;6.10;99.90
18934;DHT22;9599;53.706;10.384;2023-12-20T06:35:50;6.10;99.90
18934;DHT22;9599;53.706;10.384;2023-12-20T06:38:20;6.10;99.90
18934;DHT22;9599;53.706;10.384;2023-12-20T06:40:48;6.00;99.90
18934;DHT22;9599;53.706;10.384;2023-12-20T06:43:16;6.00;99.90
18934;DHT22;9599;53.706;10.384;2023-12-20T06:46:04;6.00;99.90
18934;DHT22;9599;53.706;10.384;2023-12-20T06:48:32;6.00;99.90
18934;DHT22;9599;53.706;10.384;2023-12-20T06:51:01;6.00;99.90
18934;DHT22;9599;53.706;10.384;2023-12-20T06:53:31;6.00;99.90
18934;DHT22;9599;53.706;10.384;2023-12-20T06:55:59;6.00;99.90
18934;DHT22;9599;53.706;10.384;2023-12-20T06:58:27;6.00;99.90
18934;DHT22;9599;53.706;10.384;2023-12-20T07:00:55;6.10;99.90
18934;DHT22;9599;53.706;10.384;2023-12-20T07:03:23;6.10;99.90
18934;DHT22;9599;53.706;10.384;2023-12-20T07:05:52;6.10;99.90
18934;DHT22;9599;53.706;10.384;2023-12-20T07:08:20;6.20;99.90
18934;DHT22;9599;53.706;10.384;2023-12-20T07:10:49;6.20;99.90
18934;DHT22;9599;53.706;10.384;2023-12-20T07:13:17;6.20;99.90
18934;DHT22;9599;53.706;10.384;2023-12-20T07:15:45;6.20;99.90
18934;DHT22;9599;53.706;10.384;2023-12-20T07:18:13;6.20;99.90
18934;DHT22;9599;53.706;10.384;2023-12-20T07:20:41;6.20;99.90
18934;DHT22;9599;53.706;10.384;2023-12-20T07:23:10;6.20;99.90
18934;DHT22;9599;53.706;10.384;2023-12-20T07:25:38;6.20;99.90
18934;DHT22;9599;53.706;10.384;2023-12-20T07:28:07;6.20;99.90
18934;DHT22;9599;53.706;10.384;2023-12-20T07:30:35;6.20;99.90
18934;DHT22;9599;53.706;10.384;2023-12-20T07:33:04;6.20;99.90
18934;DHT22;9599;53.706;10.384;2023-12-20T07:35:34;6.20;99.90
18934;DHT22;9599;53.706;10.384;2023-12-20T07:38:03;6.20;99.90
18934;DHT22;9599;53.706;10.384;2023-12-20T07:40:31;6.30;99.90
18934;DHT22;9599;53.706;10.384;2023-12-20T07:42:59;6.30;99.90
18934;DHT22;9599;53.706;10.384;2023-12-20T07:45:28;6.20;99.90
18934;DHT22;9599;53.706;10.384;2023-12-20T07:47:57;6.30;99.90
18934;DHT22;9599;53.706;10.384;2023-12-20T07:50:26;6.30;99.90
18934;DHT22;9599;53.706;10.384;2023-12-20T07:52:54;6.30;99.90
18934;DHT22;9599;53.706;10.384;2023-12-20T07:55:22;6.30;99.90
18934;DHT22;9599;53.706;10.384;2023-12-20T07:57:50;6.30;99.90
18934;DHT22;9599;53.706;10.384;2023-12-20T08:00:18;6.30;99.90
18934;DHT22;9599;53.706;10.384;2023-12-20T08:02:48;6.20;99.90
18934;DHT22;9599;53.706;10.384;2023-12-20T08:05:16;6.30;99.90
18934;DHT22;9599;53.706;10.384;2023-12-20T08:07:44;6.30;99.90
18934;DHT22;9599;53.706;10.384;2023-12-20T08:10:14;6.30;99.90
18934;DHT22;9599;53.706;10.384;2023-12-20T08:12:42;6.30;99.90
18934;DHT22;9599;53.706;10.384;2023-12-20T08:15:10;6.30;99.90
18934;DHT22;9599;53.706;10.384;2023-12-20T08:17:38;6.40;99.90
18934;DHT22;9599;53.706;10.384;2023-12-20T08:20:10;6.40;99.90
18934;DHT22;9599;53.706;10.384;2023-12-20T08:22:42;6.50;99.90
18934;DHT22;9599;53.706;10.384;2023-12-20T08:25:10;6.50;99.90
18934;DHT22;9599;53.706;10.384;2023-12-20T08:27:40;6.50;99.90
18934;DHT22;9599;53.706;10.384;2023-12-20T08:30:09;6.60;99.90
18934;DHT22;9599;53.706;10.384;2023-12-20T08:32:37;6.60;99.90
18934;DHT22;9599;53.706;10.384;2023-12-20T08:35:06;6.70;99.90
18934;DHT22;9599;53.706;10.384;2023-12-20T08:37:35;6.70;99.90
18934;DHT22;9599;53.706;10.384;2023-12-20T08:40:04;6.70;99.90
18934;DHT22;9599;53.706;10.384;2023-12-20T08:42:33;6.70;99.90
18934;DHT22;9599;53.706;10.384;2023-12-20T08:45:01;6.70;99.90
18934;DHT22;9599;53.706;10.384;2023-12-20T08:47:31;6.70;99.90
18934;DHT22;9599;53.706;10.384;2023-12-20T08:49:59;6.70;99.90
18934;DHT22;9599;53.706;10.384;2023-12-20T08:52:28;6.70;99.90
18934;DHT22;9599;53.706;10.384;2023-12-20T08:54:58;6.80;99.90
18934;DHT22;9599;53.706;10.384;2023-12-20T08:57:26;6.90;99.90
18934;DHT22;9599;53.706;10.384;2023-12-20T08:59:54;6.90;99.90
18934;DHT22;9599;53.706;10.384;2023-12-20T09:02:22;6.90;99.90
18934;DHT22;9599;53.706;10.384;2023-12-20T09:04:50;6.90;99.90
18934;DHT22;9599;53.706;10.384;2023-12-20T09:07:22;6.90;99.90
18934;DHT22;9599;53.706;10.384;2023-12-20T09:09:51;6.90;99.90
18934;DHT22;9599;53.706;10.384;2023-12-20T09:12:21;6.90;99.90
18934;DHT22;9599;53.706;10.384;2023-12-20T09:14:50;6.80;99.90
18934;DHT22;9599;53.706;10.384;2023-12-20T09:17:18;6.80;99.90
18934;DHT22;9599;53.706;10.384;2023-12-20T09:19:48;6.70;99.90
18934;DHT22;9599;53.706;10.384;2023-12-20T09:22:16;6.70;99.90
18934;DHT22;9599;53.706;10.384;2023-12-20T09:24:45;6.60;99.90
18934;DHT22;9599;53.706;10.384;2023-12-20T09:27:13;6.50;99.90
18934;DHT22;9599;53.706;10.384;2023-12-20T09:29:42;6.50;99.90
18934;DHT22;9599;53.706;10.384;2023-12-20T09:32:10;6.40;99.90
18934;DHT22;9599;53.706;10.384;2023-12-20T09:34:38;6.30;99.90
18934;DHT22;9599;53.706;10.384;2023-12-20T09:37:07;6.20;99.90
18934;DHT22;9599;53.706;10.384;2023-12-20T09:39:35;6.10;99.90
18934;DHT22;9599;53.706;10.384;2023-12-20T09:42:04;6.10;99.90
18934;DHT22;9599;53.706;10.384;2023-12-20T09:44:33;6.10;99.90
18934;DHT22;9599;53.706;10.384;2023-12-20T09:47:04;6.20;99.90
18934;DHT22;9599;53.706;10.384;2023-12-20T09:49:33;6.20;99.90
18934;DHT22;9599;53.706;10.384;2023-12-20T09:52:01;6.20;99.90
18934;DHT22;9599;53.706;10.384;2023-12-20T09:54:31;6.20;99.90
18934;DHT22;9599;53.706;10.384;2023-12-20T09:56:59;6.20;99.90
18934;DHT22;9599;53.706;10.384;2023-12-20T09:59:27;6.20;99.90
18934;DHT22;9599;53.706;10.384;2023-12-20T10:01:55;6.20;99.90
18934;DHT22;9599;53.706;10.384;2023-12-20T10:04:26;6.20;99.90
18934;DHT22;9599;53.706;10.384;2023-12-20T10:06:56;6.10;99.90
18934;DHT22;9599;53.706;10.384;2023-12-20T10:09:25;6.00;99.90
18934;DHT22;9599;53.706;10.384;2023-12-20T10:11:54;6.00;99.90
18934;DHT22;9599;53.706;10.384;2023-12-20T10:14:24;6.00;99.90
18934;DHT22;9599;53.706;10.384;2023-12-20T10:16:52;5.90;99.90
18934;DHT22;9599;53.706;10.384;2023-12-20T10:19:20;5.90;99.90
18934;DHT22;9599;53.706;10.384;2023-12-20T10:21:50;5.90;99.90
18934;DHT22;9599;53.706;10.384;2023-12-20T10:24:19;5.90;99.90
18934;DHT22;9599;53.706;10.384;2023-12-20T10:27:01;5.90;99.90
18934;DHT22;9599;53.706;10.384;2023-12-20T10:29:32;5.90;99.90
18934;DHT22;9599;53.706;10.384;2023-12-20T10:32:24;5.90;99.90
18934;DHT22;9599;53.706;10.384;2023-12-20T10:34:54;5.90;99.90
18934;DHT22;9599;53.706;10.384;2023-12-20T10:37:25;5.90;99.90
18934;DHT22;9599;53.706;10.384;2023-12-20T10:39:54;6.00;99.90
18934;DHT22;9599;53.706;10.384;2023-12-20T10:42:26;5.90;99.90
18934;DHT22;9599;53.706;10.384;2023-12-20T10:44:54;5.90;99.90
18934;DHT22;9599;53.706;10.384;2023-12-20T10:47:23;5.80;99.90
18934;DHT22;9599;53.706;10.384;2023-12-20T10:49:52;5.80;99.90
18934;DHT22;9599;53.706;10.384;2023-12-20T10:52:24;5.90;99.90
18934;DHT22;9599;53.706;10.384;2023-12-20T10:54:54;5.80;99.90
18934;DHT22;9599;53.706;10.384;2023-12-20T10:57:22;5.80;99.90
18934;DHT22;9599;53.706;10.384;2023-12-20T10:59:51;5.90;99.90
18934;DHT22;9599;53.706;10.384;2023-12-20T11:02:22;5.90;99.90
18934;DHT22;9599;53.706;10.384;2023-12-20T11:04:53;5.90;99.90
18934;DHT22;9599;53.706;10.384;2023-12-20T11:07:29;5.90;99.90
18934;DHT22;9599;53.706;10.384;2023-12-20T11:10:03;5.90;99.90
18934;DHT22;9599;53.706;10.384;2023-12-20T11:12:38;5.90;99.90
18934;DHT22;9599;53.706;10.384;2023-12-20T11:15:08;5.80;99.90
18934;DHT22;9599;53.706;10.384;2023-12-20T11:17:39;5.70;99.90
18934;DHT22;9599;53.706;10.384;2023-12-20T11:20:08;5.60;99.90
18934;DHT22;9599;53.706;10.384;2023-12-20T11:22:52;5.50;99.90
18934;DHT22;9599;53.706;10.384;2023-12-20T11:25:20;5.60;99.90
18934;DHT22;9599;53.706;10.384;2023-12-20T11:28:07;5.60;99.90
18934;DHT22;9599;53.706;10.384;2023-12-20T11:30:43;5.60;99.90
18934;DHT22;9599;53.706;10.384;2023-12-20T11:33:14;5.60;99.90
18934;DHT22;9599;53.706;10.384;2023-12-20T11:35:42;5.60;99.90
18934;DHT22;9599;53.706;10.384;2023-12-20T11:38:13;5.60;99.90
18934;DHT22;9599;53.706;10.384;2023-12-20T11:40:42;5.60;99.90
18934;DHT22;9599;53.706;10.384;2023-12-20T11:43:11;5.50;99.90
18934;DHT22;9599;53.706;10.384;2023-12-20T11:45:49;5.50;99.90
18934;DHT22;9599;53.706;10.384;2023-12-20T11:48:17;5.50;99.90
18934;DHT22;9599;53.706;10.384;2023-12-20T11:50:46;5.40;99.90
18934;DHT22;9599;53.706;10.384;2023-12-20T11:53:16;5.50;99.90
18934;DHT22;9599;53.706;10.384;2023-12-20T11:55:47;5.50;99.90
18934;DHT22;9599;53.706;10.384;2023-12-20T11:58:15;5.60;99.90
18934;DHT22;9599;53.706;10.384;2023-12-20T12:00:44;5.70;99.90
18934;DHT22;9599;53.706;10.384;2023-12-20T12:03:15;5.70;99.90
18934;DHT22;9599;53.706;10.384;2023-12-20T12:05:43;5.70;99.90
18934;DHT22;9599;53.706;10.384;2023-12-20T12:08:15;5.80;99.90
18934;DHT22;9599;53.706;10.384;2023-12-20T12:10:44;5.80;99.90
18934;DHT22;9599;53.706;10.384;2023-12-20T12:13:12;5.90;99.90
18934;DHT22;9599;53.706;10.384;2023-12-20T12:15:42;5.90;99.90
18934;DHT22;9599;53.706;10.384;2023-12-20T12:18:11;5.90;99.90
18934;DHT22;9599;53.706;10.384;2023-12-20T12:20:43;6.00;99.90
18934;DHT22;9599;53.706;10.384;2023-12-20T12:23:11;6.00;99.90
18934;DHT22;9599;53.706;10.384;2023-12-20T12:25:40;6.10;99.90
18934;DHT22;9599;53.706;10.384;2023-12-20T12:28:10;6.10;99.90
18934;DHT22;9599;53.706;10.384;2023-12-20T12:30:39;6.20;99.90
18934;DHT22;9599;53.706;10.384;2023-12-20T12:33:19;6.20;99.90
18934;DHT22;9599;53.706;10.384;2023-12-20T12:35:48;6.20;99.90
18934;DHT22;9599;53.706;10.384;2023-12-20T12:38:16;6.20;99.90
18934;DHT22;9599;53.706;10.384;2023-12-20T12:40:45;6.10;99.90
18934;DHT22;9599;53.706;10.384;2023-12-20T12:43:14;6.10;99.90
18934;DHT22;9599;53.706;10.384;2023-12-20T12:45:42;6.20;99.90
18934;DHT22;9599;53.706;10.384;2023-12-20T12:48:10;6.20;99.90
18934;DHT22;9599;53.706;10.384;2023-12-20T12:50:38;6.30;99.90
18934;DHT22;9599;53.706;10.384;2023-12-20T12:53:06;6.30;99.90
18934;DHT22;9599;53.706;10.384;2023-12-20T12:55:35;6.40;99.90
18934;DHT22;9599;53.706;10.384;2023-12-20T12:58:04;6.40;99.90
18934;DHT22;9599;53.706;10.384;2023-12-20T13:00:33;6.50;99.90
18934;DHT22;9599;53.706;10.384;2023-12-20T13:03:01;6.50;99.90
18934;DHT22;9599;53.706;10.384;2023-12-20T13:05:29;6.50;99.90
18934;DHT22;9599;53.706;10.384;2023-12-20T13:08:03;6.50;99.90
18934;DHT22;9599;53.706;10.384;2023-12-20T13:10:32;6.60;99.90
18934;DHT22;9599;53.706;10.384;2023-12-20T13:13:00;6.60;99.90
18934;DHT22;9599;53.706;10.384;2023-12-20T13:15:29;6.70;99.90
18934;DHT22;9599;53.706;10.384;2023-12-20T13:17:58;6.70;99.90
18934;DHT22;9599;53.706;10.384;2023-12-20T13:20:26;6.70;99.90
18934;DHT22;9599;53.706;10.384;2023-12-20T13:22:55;6.70;99.90
18934;DHT22;9599;53.706;10.384;2023-12-20T13:25:23;6.80;99.90
18934;DHT22;9599;53.706;10.384;2023-12-20T13:27:53;6.80;99.90
18934;DHT22;9599;53.706;10.384;2023-12-20T13:30:21;6.80;99.90
18934;DHT22;9599;53.706;10.384;2023-12-20T13:32:50;6.70;99.90
18934;DHT22;9599;53.706;10.384;2023-12-20T13:35:19;6.80;99.90
18934;DHT22;9599;53.706;10.384;2023-12-20T13:37:47;6.80;99.90
18934;DHT22;9599;53.706;10.384;2023-12-20T13:40:19;6.80;99.90
18934;DHT22;9599;53.706;10.384;2023-12-20T13:42:47;6.80;99.90
18934;DHT22;9599;53.706;10.384;2023-12-20T13:45:16;6.80;99.90
18934;DHT22;9599;53.706;10.384;2023-12-20T13:47:44;6.80;99.90
18934;DHT22;9599;53.706;10.384;2023-12-20T13:50:14;6.80;99.90
18934;DHT22;9599;53.706;10.384;2023-12-20T13:52:42;6.90;99.90
18934;DHT22;9599;53.706;10.384;2023-12-20T13:55:10;6.80;99.90
18934;DHT22;9599;53.706;10.384;2023-12-20T13:57:38;6.90;99.90
18934;DHT22;9599;53.706;10.384;2023-12-20T14:00:10;6.80;99.90
18934;DHT22;9599;53.706;10.384;2023-12-20T14:02:41;6.80;99.90
18934;DHT22;9599;53.706;10.384;2023-12-20T14:05:09;6.80;99.90
18934;DHT22;9599;53.706;10.384;2023-12-20T14:07:39;6.80;99.90
18934;DHT22;9599;53.706;10.384;2023-12-20T14:10:08;6.80;99.90
18934;DHT22;9599;53.706;10.384;2023-12-20T14:12:37;6.80;99.90
18934;DHT22;9599;53.706;10.384;2023-12-20T14:15:06;6.70;99.90
18934;DHT22;9599;53.706;10.384;2023-12-20T14:17:37;6.70;99.90
18934;DHT22;9599;53.706;10.384;2023-12-20T14:20:06;6.70;99.90
18934;DHT22;9599;53.706;10.384;2023-12-20T14:22:35;6.70;99.90
18934;DHT22;9599;53.706;10.384;2023-12-20T14:25:08;6.60;99.90
18934;DHT22;9599;53.706;10.384;2023-12-20T14:27:36;6.60;99.90
18934;DHT22;9599;53.706;10.384;2023-12-20T14:30:06;6.60;99.90
18934;DHT22;9599;53.706;10.384;2023-12-20T14:32:35;6.50;99.90
18934;DHT22;9599;53.706;10.384;2023-12-20T14:35:05;6.50;99.90
18934;DHT22;9599;53.706;10.384;2023-12-20T14:37:35;6.50;99.90
18934;DHT22;9599;53.706;10.384;2023-12-20T14:40:08;6.50;99.90
18934;DHT22;9599;53.706;10.384;2023-12-20T14:42:41;6.40;99.90
18934;DHT22;9599;53.706;10.384;2023-12-20T14:45:10;6.50;99.90
18934;DHT22;9599;53.706;10.384;2023-12-20T14:47:38;6.40;99.90
18934;DHT22;9599;53.706;10.384;2023-12-20T14:50:07;6.40;99.90
18934;DHT22;9599;53.706;10.384;2023-12-20T14:52:35;6.40;99.90
18934;DHT22;9599;53.706;10.384;2023-12-20T14:55:04;6.40;99.90
18934;DHT22;9599;53.706;10.384;2023-12-20T14:57:34;6.40;99.90
18934;DHT22;9599;53.706;10.384;2023-12-20T15:00:02;6.40;99.90
18934;DHT22;9599;53.706;10.384;2023-12-20T15:02:30;6.30;99.90
18934;DHT22;9599;53.706;10.384;2023-12-20T15:04:58;6.30;99.90
18934;DHT22;9599;53.706;10.384;2023-12-20T15:07:28;6.30;99.90
18934;DHT22;9599;53.706;10.384;2023-12-20T15:09:56;6.20;99.90
18934;DHT22;9599;53.706;10.384;2023-12-20T15:12:24;6.30;99.90
18934;DHT22;9599;53.706;10.384;2023-12-20T15:14:53;6.20;99.90
18934;DHT22;9599;53.706;10.384;2023-12-20T15:17:21;6.20;99.90
18934;DHT22;9599;53.706;10.384;2023-12-20T15:19:49;6.20;99.90
18934;DHT22;9599;53.706;10.384;2023-12-20T15:22:17;6.10;99.90
18934;DHT22;9599;53.706;10.384;2023-12-20T15:24:45;6.10;99.90
18934;DHT22;9599;53.706;10.384;2023-12-20T15:27:14;6.10;99.90
18934;DHT22;9599;53.706;10.384;2023-12-20T15:29:43;6.00;99.90
18934;DHT22;9599;53.706;10.384;2023-12-20T15:32:12;6.00;99.90
18934;DHT22;9599;53.706;10.384;2023-12-20T15:34:40;5.90;99.90
18934;DHT22;9599;53.706;10.384;2023-12-20T15:37:09;5.80;99.90
18934;DHT22;9599;53.706;10.384;2023-12-20T15:39:37;5.70;99.90
18934;DHT22;9599;53.706;10.384;2023-12-20T15:42:05;5.60;99.90
18934;DHT22;9599;53.706;10.384;2023-12-20T15:44:33;5.60;99.90
18934;DHT22;9599;53.706;10.384;2023-12-20T15:47:01;5.50;99.90
18934;DHT22;9599;53.706;10.384;2023-12-20T15:49:30;5.50;99.90
18934;DHT22;9599;53.706;10.384;2023-12-20T15:51:58;5.50;99.90
18934;DHT22;9599;53.706;10.384;2023-12-20T15:54:29;5.50;99.90
18934;DHT22;9599;53.706;10.384;2023-12-20T15:56:57;5.50;99.90